createdAt,value
2023-02-27T00:02:00.181Z,102642.03
2023-02-27T00:04:26.728Z,102765.16
2023-02-27T00:06:53.273Z,102757.19
2023-02-27T00:09:19.835Z,102667.66
2023-02-27T00:11:46.375Z,102763.34
2023-02-27T00:14:12.829Z,102705.38
2023-02-27T00:16:39.316Z,102770.53
2023-02-27T00:19:05.952Z,102759.19
2023-02-27T00:21:34.710Z,102766.03
2023-02-27T00:24:02.588Z,102771.41
2023-02-27T00:26:29.186Z,102754.72
2023-02-27T00:28:55.721Z,102768.72
2023-02-27T00:31:22.259Z,102716.03
2023-02-27T00:33:48.743Z,102744.94
2023-02-27T00:36:15.303Z,102760.88
2023-02-27T00:38:41.862Z,102772.31
2023-02-27T00:41:08.475Z,102718.66
2023-02-27T00:43:35.632Z,102733.63
2023-02-27T00:46:02.128Z,102752.03
2023-02-27T00:48:28.793Z,102758.25
2023-02-27T00:50:55.393Z,102729.25
2023-02-27T00:53:21.986Z,102769.72
2023-02-27T00:55:48.594Z,102770.63
2023-02-27T00:58:15.089Z,102678.41
2023-02-27T01:00:41.773Z,102769.78
2023-02-27T01:03:08.245Z,102773.34
2023-02-27T01:05:34.770Z,102769.81
2023-02-27T01:08:01.206Z,102721.53
2023-02-27T01:10:27.667Z,102766.25
2023-02-27T01:12:54.140Z,102583.53
2023-02-27T01:15:20.937Z,102703.88
2023-02-27T01:17:48.104Z,102741.66
2023-02-27T01:20:15.862Z,102746.94
2023-02-27T01:22:42.644Z,102731.16
2023-02-27T01:25:09.864Z,102763.69
2023-02-27T01:27:36.590Z,102763.59
2023-02-27T01:30:04.285Z,102751.25
2023-02-27T01:32:30.811Z,102756.56
2023-02-27T01:34:57.334Z,102727.66
2023-02-27T01:37:23.879Z,102748.66
2023-02-27T01:39:50.665Z,102751.34
2023-02-27T01:42:26.148Z,102735.53
2023-02-27T01:45:11.402Z,102744.34
2023-02-27T01:47:48.297Z,102747.94
2023-02-27T01:50:34.751Z,102747.06
2023-02-27T01:53:02.909Z,102704.88
2023-02-27T01:55:32.997Z,102746.22
2023-02-27T01:58:00.280Z,102742.72
2023-02-27T02:00:27.200Z,102692.59
2023-02-27T02:03:00.909Z,102724.28
2023-02-27T02:05:29.312Z,102747.16
2023-02-27T02:07:56.413Z,102755.97
2023-02-27T02:10:23.201Z,102726.06
2023-02-27T02:12:50.109Z,102755.09
2023-02-27T02:15:17.150Z,102730.47
2023-02-27T02:18:28.240Z,102748.84
2023-02-27T02:21:20.828Z,102753.25
2023-02-27T02:24:14.846Z,102762.97
2023-02-27T02:26:57.968Z,102757.69
2023-02-27T02:30:05.427Z,102756.84
2023-02-27T02:32:53.859Z,102685.75
2023-02-27T02:35:37.503Z,102762.19
2023-02-27T02:38:34.800Z,102767.53
2023-02-27T02:41:19.142Z,102768.38
2023-02-27T02:43:58.387Z,102764.00
2023-02-27T02:46:33.886Z,102768.38
2023-02-27T02:49:15.290Z,102745.53
2023-02-27T02:51:47.885Z,102760.41
2023-02-27T02:54:20.604Z,102722.69
2023-02-27T02:56:56.206Z,102763.94
2023-02-27T02:59:35.007Z,102760.41
2023-02-27T03:02:06.354Z,102701.56
2023-02-27T03:04:43.793Z,102739.31
2023-02-27T03:07:17.635Z,102728.75
2023-02-27T03:09:53.648Z,102768.34
2023-02-27T03:12:23.477Z,102760.41
2023-02-27T03:15:26.706Z,102755.97
2023-02-27T03:18:18.610Z,102759.63
2023-02-27T03:21:12.041Z,102752.50
2023-02-27T03:23:44.476Z,102736.69
2023-02-27T03:26:16.305Z,102737.59
2023-02-27T03:28:52.219Z,102735.84
2023-02-27T03:31:38.573Z,102760.41
2023-02-27T03:34:35.678Z,102762.13
2023-02-27T03:37:22.853Z,102759.50
2023-02-27T03:40:06.492Z,102738.41
2023-02-27T03:42:46.963Z,102726.09
2023-02-27T03:45:42.691Z,102765.69
2023-02-27T03:48:09.420Z,102760.47
2023-02-27T03:50:37.402Z,102771.94
2023-02-27T03:53:25.252Z,102743.78
2023-02-27T03:55:53.372Z,102768.34
2023-02-27T03:58:22.842Z,102772.75
2023-02-27T04:00:49.575Z,102763.97
2023-02-27T04:03:16.094Z,102723.56
2023-02-27T04:05:42.629Z,102774.59
2023-02-27T04:08:41.826Z,102792.22
2023-02-27T04:11:25.660Z,102789.63
2023-02-27T04:14:12.438Z,102783.41
2023-02-27T04:17:06.713Z,102780.88
2023-02-27T04:19:46.993Z,102776.38
2023-02-27T04:22:39.522Z,102779.88
2023-02-27T04:25:22.619Z,102754.41
2023-02-27T04:27:55.198Z,102773.72
2023-02-27T04:30:46.775Z,102782.56
2023-02-27T04:33:18.009Z,102785.19
2023-02-27T04:35:59.122Z,102770.16
2023-02-27T04:38:28.782Z,102786.91
2023-02-27T04:41:05.841Z,102700.63
2023-02-27T04:43:34.019Z,102754.22
2023-02-27T04:46:03.941Z,102760.22
2023-02-27T04:48:37.018Z,102739.09
2023-02-27T04:51:13.460Z,102769.09
2023-02-27T04:53:49.550Z,102775.31
2023-02-27T04:56:30.890Z,102774.44
2023-02-27T04:59:02.195Z,102729.69
2023-02-27T05:01:59.555Z,102779.81
2023-02-27T05:04:29.911Z,102774.53
2023-02-27T05:06:58.043Z,102783.34
2023-02-27T05:09:50.931Z,102783.41
2023-02-27T05:12:26.643Z,102776.38
2023-02-27T05:14:55.903Z,102778.09
2023-02-27T05:17:29.140Z,102744.72
2023-02-27T05:19:56.179Z,102777.25
2023-02-27T05:22:59.951Z,102793.16
2023-02-27T05:25:26.402Z,102785.22
2023-02-27T05:28:06.628Z,102787.88
2023-02-27T05:30:42.672Z,102780.81
2023-02-27T05:33:21.066Z,102784.34
2023-02-27T05:36:02.575Z,102778.19
2023-02-27T05:38:34.541Z,102776.44
2023-02-27T05:41:09.340Z,102776.38
2023-02-27T05:43:42.378Z,102770.25
2023-02-27T05:46:15.944Z,102697.28
2023-02-27T05:48:55.236Z,102738.56
2023-02-27T05:51:27.091Z,102717.50
2023-02-27T05:54:01.573Z,102771.06
2023-02-27T05:56:31.202Z,102749.94
2023-02-27T05:59:08.247Z,102748.25
2023-02-27T06:01:35.029Z,102749.97
2023-02-27T06:04:01.656Z,102754.38
2023-02-27T06:06:30.213Z,102770.22
2023-02-27T06:08:56.660Z,102769.38
2023-02-27T06:11:23.098Z,102755.38
2023-02-27T06:13:49.558Z,102775.56
2023-02-27T06:16:16.411Z,102778.25
2023-02-27T06:18:42.949Z,102789.72
2023-02-27T06:21:09.614Z,102778.22
2023-02-27T06:23:36.390Z,102783.50
2023-02-27T06:26:02.867Z,102787.97
2023-02-27T06:28:29.495Z,102792.34
2023-02-27T06:30:57.355Z,102789.72
2023-02-27T06:33:26.033Z,102797.63
2023-02-27T06:35:53.602Z,102812.63
2023-02-27T06:38:20.574Z,102751.94
2023-02-27T06:40:47.525Z,102805.50
2023-02-27T06:43:14.924Z,102813.38
2023-02-27T06:45:41.595Z,102811.63
2023-02-27T06:48:08.424Z,102807.16
2023-02-27T06:50:35.272Z,102819.63
2023-02-27T06:53:01.851Z,102791.38
2023-02-27T06:55:28.406Z,102824.03
2023-02-27T06:57:54.877Z,102828.34
2023-02-27T07:00:21.763Z,102824.84
2023-02-27T07:02:48.332Z,102822.19
2023-02-27T07:05:14.939Z,102836.25
2023-02-27T07:07:41.594Z,102838.00
2023-02-27T07:10:11.913Z,102830.00
2023-02-27T07:12:39.875Z,102839.75
2023-02-27T07:15:07.590Z,102842.41
2023-02-27T07:17:34.070Z,102837.84
2023-02-27T07:20:00.539Z,102843.09
2023-02-27T07:22:27.252Z,102827.16
2023-02-27T07:24:53.694Z,102848.25
2023-02-27T07:27:20.224Z,102833.19
2023-02-27T07:29:46.939Z,102798.75
2023-02-27T07:32:13.467Z,102841.72
2023-02-27T07:34:40.019Z,102839.81
2023-02-27T07:37:38.567Z,102845.91
2023-02-27T07:40:07.623Z,102845.00
2023-02-27T07:42:34.322Z,102842.25
2023-02-27T07:45:01.063Z,102775.47
2023-02-27T07:47:27.666Z,102845.63
2023-02-27T07:49:54.146Z,102841.06
2023-02-27T07:52:20.632Z,102820.75
2023-02-27T07:54:47.138Z,102837.28
2023-02-27T07:57:13.920Z,102859.25
2023-02-27T07:59:40.500Z,102854.78
2023-02-27T08:02:07.556Z,102816.94
2023-02-27T08:04:35.251Z,102770.97
2023-02-27T08:07:03.247Z,102831.53
2023-02-27T08:09:30.872Z,102835.66
2023-02-27T08:11:58.459Z,102844.31
2023-02-27T08:14:25.074Z,102841.59
2023-02-27T08:16:51.582Z,102842.38
2023-02-27T08:19:18.072Z,102835.13
2023-02-27T08:21:44.567Z,102841.94
2023-02-27T08:24:11.074Z,102851.63
2023-02-27T08:26:37.841Z,102850.56
2023-02-27T08:29:04.357Z,102844.22
2023-02-27T08:31:31.036Z,102824.97
2023-02-27T08:34:07.944Z,102852.13
2023-02-27T08:36:36.582Z,102858.03
2023-02-27T08:39:03.322Z,102797.34
2023-02-27T08:41:29.832Z,102870.94
2023-02-27T08:43:56.520Z,102860.84
2023-02-27T08:46:23.140Z,102865.75
2023-02-27T08:48:49.958Z,102869.34
2023-02-27T08:51:16.553Z,102883.31
2023-02-27T08:53:43.079Z,102811.91
2023-02-27T08:56:09.869Z,102889.66
2023-02-27T08:58:36.489Z,102902.25
2023-02-27T09:01:03.403Z,102919.38
2023-02-27T09:03:30.143Z,102900.56
2023-02-27T09:05:57.129Z,102903.34
2023-02-27T09:08:23.736Z,102930.91
2023-02-27T09:10:50.477Z,102839.88
2023-02-27T09:13:17.204Z,102932.97
2023-02-27T09:15:43.722Z,102940.00
2023-02-27T09:18:10.255Z,102934.25
2023-02-27T09:20:36.821Z,102928.06
2023-02-27T09:23:04.112Z,102952.06
2023-02-27T09:25:31.817Z,102961.88
2023-02-27T09:27:58.459Z,102965.41
2023-02-27T09:30:25.458Z,102964.09
2023-02-27T09:32:52.054Z,102972.50
2023-02-27T09:35:20.575Z,102977.22
2023-02-27T09:37:48.348Z,102910.97
2023-02-27T09:40:23.992Z,102979.56
2023-02-27T09:42:53.685Z,102967.97
2023-02-27T09:45:27.238Z,102966.38
2023-02-27T09:48:05.753Z,102964.38
2023-02-27T09:50:47.728Z,102954.94
2023-02-27T09:53:23.635Z,102942.66
2023-02-27T09:55:50.496Z,102971.28
2023-02-27T09:58:34.741Z,102960.69
2023-02-27T10:01:09.285Z,102949.03
2023-02-27T10:03:56.811Z,102941.44
2023-02-27T10:06:31.899Z,102935.59
2023-02-27T10:09:19.598Z,102937.97
2023-02-27T10:12:22.764Z,102947.53
2023-02-27T10:14:56.715Z,102948.44
2023-02-27T10:17:36.259Z,102936.16
2023-02-27T10:20:09.888Z,102944.44
2023-02-27T10:22:43.345Z,102950.28
2023-02-27T10:25:30.373Z,102948.94
2023-02-27T10:28:06.201Z,102947.66
2023-02-27T10:30:34.991Z,102916.81
2023-02-27T10:33:16.724Z,102918.06
2023-02-27T10:35:44.885Z,102869.88
2023-02-27T10:38:41.589Z,102918.50
2023-02-27T10:41:14.606Z,102970.00
2023-02-27T10:43:42.429Z,102976.13
2023-02-27T10:46:19.579Z,102963.34
2023-02-27T10:48:46.409Z,102974.88
2023-02-27T10:51:31.538Z,102984.88
2023-02-27T10:54:37.186Z,102991.91
2023-02-27T10:57:18.238Z,102972.53
2023-02-27T10:59:53.082Z,102985.78
2023-02-27T11:02:26.864Z,102988.25
2023-02-27T11:04:55.730Z,102995.38
2023-02-27T11:07:33.588Z,102996.19
2023-02-27T11:10:28.067Z,102983.88
2023-02-27T11:13:18.980Z,102987.97
2023-02-27T11:16:03.198Z,102991.28
2023-02-27T11:18:30.793Z,102994.22
2023-02-27T11:21:27.431Z,102987.50
2023-02-27T11:23:59.069Z,102992.56
2023-02-27T11:26:33.219Z,102994.91
2023-02-27T11:29:15.210Z,102988.06
2023-02-27T11:31:46.245Z,102995.38
2023-02-27T11:34:25.180Z,102999.88
2023-02-27T11:36:55.839Z,102998.28
2023-02-27T11:39:27.183Z,102995.00
2023-02-27T11:41:56.959Z,103000.06
2023-02-27T11:44:49.830Z,103003.53
2023-02-27T11:47:23.770Z,103003.81
2023-02-27T11:49:56.407Z,103004.38
2023-02-27T11:52:35.239Z,102997.53
2023-02-27T11:55:05.654Z,102994.19
2023-02-27T11:57:38.712Z,102983.16
2023-02-27T12:03:17.516Z,102998.34
2023-02-27T12:05:49.250Z,102989.91
2023-02-27T12:08:42.820Z,102958.16
2023-02-27T12:11:37.250Z,102986.56
2023-02-27T12:14:16.407Z,102984.25
2023-02-27T12:16:48.354Z,102977.19
2023-02-27T12:19:25.173Z,102986.25
2023-02-27T12:22:03.020Z,102981.56
2023-02-27T12:24:39.214Z,102956.47
2023-02-27T12:27:52.479Z,102978.84
2023-02-27T12:30:24.337Z,102970.97
2023-02-27T12:33:18.002Z,102974.53
2023-02-27T12:35:51.987Z,102967.56
2023-02-27T12:38:19.845Z,102974.13
2023-02-27T12:41:10.490Z,102961.03
2023-02-27T12:43:43.106Z,102961.78
2023-02-27T12:46:31.117Z,102963.81
2023-02-27T12:49:06.937Z,102963.69
2023-02-27T12:51:45.993Z,102964.50
2023-02-27T12:54:31.443Z,102954.25
2023-02-27T12:57:05.677Z,102957.59
2023-02-27T12:59:43.429Z,102947.03
2023-02-27T13:02:28.561Z,102902.09
2023-02-27T13:05:09.538Z,102960.53
2023-02-27T13:08:04.328Z,102942.06
2023-02-27T13:10:39.707Z,102949.66
2023-02-27T13:13:45.852Z,102951.94
2023-02-27T13:16:17.595Z,102939.78
2023-02-27T13:18:49.656Z,102902.25
2023-02-27T13:21:28.890Z,102943.56
2023-02-27T13:24:16.342Z,102946.91
2023-02-27T13:26:49.516Z,102950.53
2023-02-27T13:29:18.453Z,102945.28
2023-02-27T13:31:57.251Z,102957.91
2023-02-27T13:34:35.857Z,102917.00
2023-02-27T13:37:05.166Z,102948.75
2023-02-27T13:39:45.121Z,102946.03
2023-02-27T13:42:27.466Z,102953.41
2023-02-27T13:44:58.785Z,102940.97
2023-02-27T13:47:31.311Z,102945.19
2023-02-27T13:50:01.670Z,102927.66
2023-02-27T13:52:31.194Z,102933.44
2023-02-27T13:55:06.225Z,102940.22
2023-02-27T13:57:38.001Z,102948.69
2023-02-27T14:00:09.156Z,102943.88
2023-02-27T14:02:57.800Z,102947.88
2023-02-27T14:05:42.993Z,102866.56
2023-02-27T14:08:16.461Z,102950.22
2023-02-27T14:11:01.201Z,102962.47
2023-02-27T14:13:46.510Z,102959.66
2023-02-27T14:16:41.906Z,102962.69
2023-02-27T14:19:22.758Z,102959.25
2023-02-27T14:21:49.780Z,102965.66
2023-02-27T14:24:18.575Z,102879.47
2023-02-27T14:26:47.006Z,102919.34
2023-02-27T14:29:24.406Z,102972.44
2023-02-27T14:31:54.089Z,102926.56
2023-02-27T14:34:22.210Z,102976.53
2023-02-27T14:36:52.850Z,102974.72
2023-02-27T14:39:28.663Z,102981.72
2023-02-27T14:42:14.093Z,102981.31
2023-02-27T14:44:43.791Z,102989.94
2023-02-27T14:47:17.978Z,102966.69
2023-02-27T14:49:47.355Z,102982.88
2023-02-27T14:52:20.314Z,102980.94
2023-02-27T14:54:50.820Z,102962.88
2023-02-27T14:57:24.214Z,102986.84
2023-02-27T14:59:53.005Z,102975.28
2023-02-27T15:02:24.784Z,102998.38
2023-02-27T15:04:56.215Z,102994.56
2023-02-27T15:07:28.672Z,102995.16
2023-02-27T15:10:00.431Z,102921.94
2023-02-27T15:12:31.152Z,102989.78
2023-02-27T15:15:01.460Z,102840.28
2023-02-27T15:17:37.242Z,103004.13
2023-02-27T15:20:21.245Z,102888.28
2023-02-27T15:22:47.734Z,103006.53
2023-02-27T15:25:33.364Z,102999.03
2023-02-27T15:28:06.794Z,102943.31
2023-02-27T15:30:33.925Z,103000.66
2023-02-27T15:33:02.074Z,102999.94
2023-02-27T15:35:35.936Z,103004.38
2023-02-27T15:38:02.811Z,103005.03
2023-02-27T15:40:31.933Z,102937.38
2023-02-27T15:43:00.098Z,102898.59
2023-02-27T15:45:31.622Z,102968.72
2023-02-27T15:47:58.181Z,103014.91
2023-02-27T15:50:33.200Z,103018.50
2023-02-27T17:34:17.105Z,102996.81
2023-02-27T17:36:43.603Z,103022.31
2023-02-27T17:39:12.769Z,103008.09
2023-02-27T17:41:40.940Z,102996.44
2023-02-27T17:44:11.766Z,103001.13
2023-02-27T17:46:39.093Z,103004.56
2023-02-27T17:49:05.719Z,102999.94
2023-02-27T17:51:33.179Z,103003.06
2023-02-27T17:54:04.912Z,102985.56
2023-02-27T17:56:31.734Z,102939.38
2023-02-27T17:58:58.758Z,102973.50
2023-02-27T18:01:26.595Z,102998.63
2023-02-27T18:03:54.951Z,102950.28
2023-02-27T18:06:23.034Z,103006.19
2023-02-27T18:08:49.904Z,102948.84
2023-02-27T18:11:19.118Z,103007.19
2023-02-27T18:13:47.557Z,102915.88
2023-02-27T18:16:15.029Z,102955.44
2023-02-27T18:18:42.641Z,103004.66
2023-02-27T18:21:13.142Z,103019.63
2023-02-27T18:23:40.835Z,102971.69
2023-02-27T18:26:12.479Z,103023.88
2023-02-27T18:28:43.789Z,102992.91
2023-02-27T18:31:28.408Z,102988.09
2023-02-27T18:33:54.996Z,103009.78
2023-02-27T18:36:21.712Z,103021.69
2023-02-27T18:38:48.295Z,102999.03
2023-02-27T18:41:15.093Z,102986.13
2023-02-27T18:43:43.427Z,103034.06
2023-02-27T18:46:12.281Z,102958.00
2023-02-27T18:48:39.992Z,103041.28
2023-02-27T18:51:12.333Z,103032.06
2023-02-27T18:53:44.304Z,103037.56
2023-02-27T18:56:11.970Z,103005.25
2023-02-27T18:58:38.804Z,103039.59
2023-02-27T19:01:07.322Z,103056.34
2023-02-27T19:03:35.948Z,103010.75
2023-02-27T19:06:02.746Z,103047.88
2023-02-27T19:08:29.391Z,103050.78
2023-02-27T19:10:59.156Z,103050.56
2023-02-27T19:13:26.646Z,103043.09
2023-02-27T19:15:54.013Z,103050.22
2023-02-27T19:18:20.523Z,103048.38
2023-02-27T19:20:47.088Z,103022.66
2023-02-27T19:23:13.570Z,103050.84
2023-02-27T19:25:42.024Z,103052.72
2023-02-27T19:28:11.331Z,103019.38
2023-02-27T19:30:41.171Z,103054.69
2023-02-27T19:33:07.664Z,102981.19
2023-02-27T19:35:34.284Z,103053.88
2023-02-27T19:38:01.141Z,103002.75
2023-02-27T19:40:28.335Z,103018.78
2023-02-27T19:42:55.008Z,103050.53
2023-02-27T19:45:21.601Z,103047.06
2023-02-27T19:47:48.228Z,103024.44
2023-02-27T19:50:15.012Z,103043.09
2023-02-27T19:52:41.725Z,103053.59
2023-02-27T19:55:08.550Z,103002.72
2023-02-27T19:57:37.027Z,103041.13
2023-02-27T20:00:06.436Z,102977.75
2023-02-27T20:02:33.230Z,103002.25
2023-02-27T20:05:00.059Z,103050.03
2023-02-27T20:07:29.056Z,102992.06
2023-02-27T20:09:56.898Z,103058.03
2023-02-27T20:12:24.000Z,103015.81
2023-02-27T20:14:50.492Z,103055.00
2023-02-27T20:17:17.297Z,103048.13
2023-02-27T20:19:43.811Z,103005.22
2023-02-27T20:22:10.991Z,103046.63
2023-02-27T20:24:37.492Z,102982.06
2023-02-27T20:27:04.316Z,103066.03
2023-02-27T20:29:30.823Z,103072.44
2023-02-27T20:31:57.574Z,103000.56
2023-02-27T20:34:26.485Z,103070.53
2023-02-27T20:36:54.988Z,103072.44
2023-02-27T20:39:21.969Z,103076.09
2023-02-27T20:41:48.935Z,103085.84
2023-02-27T20:44:15.890Z,103060.78
2023-02-27T20:46:43.785Z,103036.59
2023-02-27T20:49:12.710Z,103046.06
2023-02-27T20:51:39.929Z,103010.16
2023-02-27T20:54:09.094Z,103073.19
2023-02-27T20:56:38.414Z,103068.63
2023-02-27T20:59:07.403Z,103080.09
2023-02-27T21:01:35.038Z,103057.97
2023-02-27T21:04:02.741Z,103067.84
2023-02-27T21:06:30.530Z,103056.78
2023-02-27T21:08:57.347Z,103077.91
2023-02-27T21:11:29.645Z,103058.22
2023-02-27T21:14:03.466Z,103071.84
2023-02-27T21:16:31.599Z,103077.69
2023-02-27T21:18:58.380Z,103015.97
2023-02-27T21:21:28.410Z,103064.03
2023-02-27T21:23:55.430Z,103063.84
2023-02-27T21:26:39.125Z,103082.66
2023-02-27T21:29:09.394Z,102946.47
2023-02-27T21:31:38.392Z,103064.13
2023-02-27T21:34:11.316Z,103000.97
2023-02-27T21:36:42.896Z,103067.66
2023-02-27T21:39:14.111Z,103055.41
2023-02-27T21:41:41.307Z,103067.81
2023-02-27T21:44:09.711Z,103037.19
2023-02-27T21:46:36.198Z,102984.28
2023-02-27T21:49:03.928Z,103065.94
2023-02-27T21:51:39.897Z,103066.78
2023-02-27T21:54:07.356Z,103060.38
2023-02-27T21:56:33.877Z,103057.09
2023-02-27T21:59:01.944Z,103039.00
2023-02-27T22:01:29.456Z,103015.44
2023-02-27T22:03:57.310Z,102997.56
2023-02-27T22:06:26.832Z,103073.03
2023-02-27T22:08:57.765Z,102998.16
2023-02-27T22:11:26.140Z,103058.41
2023-02-27T22:13:53.089Z,102985.47
2023-02-27T22:16:20.832Z,103047.97
2023-02-27T22:18:48.105Z,103064.66
2023-02-27T22:21:20.503Z,103060.31
2023-02-27T22:23:47.640Z,103033.00
2023-02-27T22:26:18.018Z,103063.75
2023-02-27T22:28:44.672Z,103056.91
2023-02-27T22:31:12.654Z,103017.66
2023-02-27T22:33:41.065Z,103065.97
2023-02-27T22:36:09.328Z,103065.09
2023-02-27T22:38:36.051Z,103052.03
2023-02-27T22:41:14.253Z,103058.72
2023-02-27T22:43:41.090Z,103064.88
2023-02-27T22:46:12.350Z,103044.91
2023-02-27T22:48:39.030Z,103018.59
2023-02-27T22:51:12.893Z,103077.34
2023-02-27T22:53:40.473Z,103069.50
2023-02-27T22:56:12.380Z,103071.16
2023-02-27T22:58:39.960Z,103072.00
2023-02-27T23:01:11.356Z,103013.97
2023-02-27T23:03:38.928Z,103082.25
2023-02-27T23:06:07.469Z,103083.00
2023-02-27T23:08:34.747Z,103049.94
2023-02-27T23:11:01.546Z,103091.25
2023-02-27T23:13:28.903Z,103078.09
2023-02-27T23:15:55.374Z,103095.53
2023-02-27T23:18:21.916Z,103089.44
2023-02-27T23:20:48.459Z,103049.22
2023-02-27T23:23:15.105Z,103069.38
2023-02-27T23:25:41.669Z,103086.34
2023-02-27T23:28:08.346Z,103105.31
2023-02-27T23:30:35.060Z,103095.38
2023-02-27T23:33:01.664Z,103096.28
2023-02-27T23:35:28.434Z,103094.66
2023-02-27T23:37:57.668Z,103046.09
2023-02-27T23:40:27.169Z,103073.97
2023-02-27T23:43:13.026Z,103091.66
2023-02-27T23:45:39.882Z,103098.03
2023-02-27T23:48:06.754Z,103090.19
2023-02-27T23:50:37.274Z,103055.00
2023-02-27T23:53:05.300Z,103068.28
2023-02-27T23:55:34.272Z,103062.44
2023-02-27T23:58:02.657Z,103049.34
